Time;durP1;ratioP1;P1;durP2;ratioP2;P2;SDS_P1;SDS_P2;PMS_P1;PMS_P2;Temp;Humidity;BMP_temperature;BMP_pressure;BME280_temperature;BME280_humidity;BME280_pressure;Samples;Min_cycle;Max_cycle;Signal;HPM_P1;HPM_P2
2023/08/24 00:00:47;;;;;;;5.05;0.80;;;;;;;21.57;55.15;100495.56;10346325;28;20302;-78
2023/08/24 00:05:49;;;;;;;2.67;0.70;;;;;;;21.37;55.75;100500.63;10369309;28;20049;-79
2023/08/24 00:10:50;;;;;;;1.00;0.70;;;;;;;21.26;56.23;100504.22;10366392;28;20049;-79
2023/08/24 00:15:53;;;;;;;2.85;0.75;;;;;;;21.18;56.44;100500.78;10365992;28;20061;-78
2023/08/24 00:20:55;;;;;;;4.57;1.42;;;;;;;21.15;56.42;100489.53;10371173;28;20103;-79
2023/08/24 00:25:56;;;;;;;2.58;1.00;;;;;;;21.12;56.80;100498.22;10367972;28;20129;-76
2023/08/24 00:30:57;;;;;;;2.10;0.70;;;;;;;21.08;57.01;100486.09;10344483;28;20336;-80
2023/08/24 00:36:00;;;;;;;6.55;0.98;;;;;;;21.03;56.79;100484.09;10364077;28;20501;-78
2023/08/24 00:41:02;;;;;;;0.80;0.52;;;;;;;21.01;56.77;100478.06;10363856;28;20135;-79
2023/08/24 00:46:03;;;;;;;2.60;0.90;;;;;;;21.07;57.06;100474.34;10364187;28;20384;-77
2023/08/24 00:51:05;;;;;;;3.00;0.60;;;;;;;21.11;56.88;100474.66;10368815;28;20263;-79
2023/08/24 00:56:07;;;;;;;5.82;1.00;;;;;;;21.16;57.14;100480.25;10366964;28;20065;-79
2023/08/24 01:01:08;;;;;;;1.58;0.68;;;;;;;21.12;56.89;100482.63;10363039;28;20077;-78
2023/08/24 01:06:10;;;;;;;1.90;0.82;;;;;;;21.09;57.51;100490.47;10369524;28;20045;-78
2023/08/24 01:11:27;;;;;;;4.00;1.15;;;;;;;21.06;57.17;100491.81;10365059;28;20256;-77
2023/08/24 01:16:31;;;;;;;5.35;0.90;;;;;;;20.95;57.26;100498.13;10350302;28;20069;-78
2023/08/24 01:21:33;;;;;;;3.72;0.77;;;;;;;20.91;57.61;100499.69;10369760;28;20202;-82
2023/08/24 01:26:36;;;;;;;2.70;0.80;;;;;;;20.92;57.78;100499.44;10363213;28;20050;-79
2023/08/24 01:31:37;;;;;;;1.13;0.70;;;;;;;20.95;57.79;100501.72;10353700;28;20588;-77
2023/08/24 01:36:39;;;;;;;4.13;1.00;;;;;;;20.95;58.34;100498.13;10353618;28;20045;-77
2023/08/24 01:41:44;;;;;;;5.32;1.08;;;;;;;20.93;58.49;100489.34;10362155;28;20057;-77
2023/08/24 01:46:48;;;;;;;3.75;1.38;;;;;;;20.92;58.42;100487.69;10357322;28;20058;-81
2023/08/24 01:51:50;;;;;;;2.13;0.95;;;;;;;20.85;58.74;100484.25;10371723;28;20046;-78
2023/08/24 01:56:52;;;;;;;2.05;1.20;;;;;;;20.84;58.56;100488.91;10298322;28;20050;-77
2023/08/24 02:01:53;;;;;;;7.78;1.20;;;;;;;20.82;58.75;100484.75;10294811;28;20070;-77
2023/08/24 02:06:54;;;;;;;2.28;1.13;;;;;;;20.77;59.10;100486.31;10289218;28;20067;-77
2023/08/24 02:11:56;;;;;;;3.83;1.20;;;;;;;20.79;58.89;100481.44;10269924;28;20070;-79
2023/08/24 02:16:57;;;;;;;2.72;1.42;;;;;;;20.79;58.76;100481.44;10282137;28;20043;-80
2023/08/24 02:21:59;;;;;;;2.10;0.98;;;;;;;20.75;59.20;100479.41;10246218;28;20051;-79
2023/08/24 02:27:01;;;;;;;4.40;1.25;;;;;;;20.71;58.93;100483.69;10249156;28;20263;-79
2023/08/24 02:32:02;;;;;;;2.30;0.95;;;;;;;20.63;59.32;100473.94;10249006;28;20059;-79
2023/08/24 02:37:04;;;;;;;2.92;0.90;;;;;;;20.64;59.43;100458.41;10248525;28;20059;-77
2023/08/24 02:42:06;;;;;;;2.88;1.20;;;;;;;20.66;59.64;100457.09;10245372;29;20070;-78
2023/08/24 02:47:07;;;;;;;2.85;1.05;;;;;;;20.63;59.38;100445.81;10248930;28;20059;-78
2023/08/24 02:52:08;;;;;;;2.35;1.20;;;;;;;20.60;60.01;100452.59;10252784;28;20419;-78
2023/08/24 02:57:10;;;;;;;3.85;1.27;;;;;;;20.50;60.08;100452.34;10348451;28;20046;-79
2023/08/24 03:02:11;;;;;;;4.45;1.42;;;;;;;20.57;60.08;100445.66;10367460;28;20069;-79
2023/08/24 03:07:13;;;;;;;3.25;1.20;;;;;;;20.59;60.36;100448.19;10362992;28;20062;-80
2023/08/24 03:12:14;;;;;;;1.75;0.90;;;;;;;20.58;60.38;100446.50;10371433;28;20050;-76
2023/08/24 03:17:15;;;;;;;2.15;1.33;;;;;;;20.61;60.46;100443.31;10369079;28;20342;-77
2023/08/24 03:22:17;;;;;;;2.80;1.38;;;;;;;20.62;60.49;100436.78;10368356;28;20402;-78
2023/08/24 03:27:21;;;;;;;5.03;1.40;;;;;;;20.58;60.30;100425.47;10364982;28;20394;-77
2023/08/24 03:32:22;;;;;;;3.05;1.95;;;;;;;20.57;60.42;100425.72;10369064;28;20042;-79
2023/08/24 03:37:24;;;;;;;3.58;1.02;;;;;;;20.58;60.79;100422.75;10346478;28;20551;-79
2023/08/24 03:42:25;;;;;;;2.28;1.38;;;;;;;20.58;60.21;100430.13;10348727;28;20069;-79
2023/08/24 03:47:26;;;;;;;5.07;1.42;;;;;;;20.57;60.53;100429.28;10370027;28;20060;-81
2023/08/24 03:52:28;;;;;;;5.15;1.30;;;;;;;20.57;60.31;100417.53;10371694;28;20054;-79
2023/08/24 03:57:30;;;;;;;5.93;1.20;;;;;;;20.60;60.64;100408.88;10372538;28;20045;-80
2023/08/24 04:02:31;;;;;;;1.92;1.30;;;;;;;20.57;60.31;100404.69;10389014;28;20053;-81
2023/08/24 04:07:36;;;;;;;3.22;1.50;;;;;;;20.59;60.30;100393.56;10391998;28;20046;-81
2023/08/24 04:12:37;;;;;;;3.45;1.23;;;;;;;20.64;60.71;100390.94;10396670;28;20054;-80
2023/08/24 04:17:39;;;;;;;6.68;1.63;;;;;;;20.65;60.62;100399.97;10382432;28;20030;-78
2023/08/24 04:22:44;;;;;;;2.60;1.35;;;;;;;20.67;60.87;100398.63;10390621;28;20148;-78
2023/08/24 04:27:46;;;;;;;3.50;1.63;;;;;;;20.66;60.88;100387.97;10379721;28;20069;-75
2023/08/24 04:32:47;;;;;;;3.08;1.33;;;;;;;20.71;60.79;100323.31;10367130;28;20357;-73
2023/08/24 04:37:49;;;;;;;4.25;1.80;;;;;;;20.67;60.91;100365.84;10366394;28;20068;-73
2023/08/24 04:42:50;;;;;;;8.73;2.50;;;;;;;20.52;61.76;100384.66;10363317;28;20058;-73
2023/08/24 04:47:52;;;;;;;2.95;1.60;;;;;;;20.57;61.91;100380.09;10361966;28;20311;-75
2023/08/24 04:52:54;;;;;;;5.80;1.77;;;;;;;20.53;61.81;100386.31;10362687;28;20547;-75
2023/08/24 04:57:55;;;;;;;3.85;2.00;;;;;;;20.46;62.07;100389.19;10366116;28;20109;-73
2023/08/24 05:02:57;;;;;;;6.75;1.92;;;;;;;20.48;62.08;100391.66;10360987;28;20060;-74
2023/08/24 05:08:00;;;;;;;3.92;1.52;;;;;;;20.41;62.82;100403.53;10366986;28;20088;-73
2023/08/24 05:13:02;;;;;;;6.18;1.52;;;;;;;20.32;62.97;100445.94;10361137;28;20058;-73
2023/08/24 05:18:04;;;;;;;6.40;1.80;;;;;;;20.18;63.15;100491.75;10363289;28;20141;-75
2023/08/24 05:23:05;;;;;;;5.90;1.40;;;;;;;20.26;63.41;100501.50;10361929;28;20042;-75
2023/08/24 05:28:06;;;;;;;4.28;1.25;;;;;;;20.59;62.46;100500.09;10364287;28;20042;-74
2023/08/24 05:33:08;;;;;;;5.32;1.33;;;;;;;20.82;62.26;100501.16;10361154;28;20050;-74
2023/08/24 05:38:10;;;;;;;2.00;1.65;;;;;;;21.10;61.17;100505.81;10364552;28;20254;-74
2023/08/24 05:43:11;;;;;;;2.40;1.13;;;;;;;21.41;60.76;100496.34;10361171;28;20046;-73
2023/08/24 05:48:13;;;;;;;3.00;1.30;;;;;;;21.67;60.85;100491.38;10363344;28;20057;-75
2023/08/24 05:53:14;;;;;;;2.85;1.23;;;;;;;21.89;60.55;100495.03;10363394;28;20130;-73
2023/08/24 05:58:16;;;;;;;2.67;1.38;;;;;;;22.13;60.43;100509.38;10374764;28;20355;-74
2023/08/24 06:03:17;;;;;;;3.33;1.10;;;;;;;22.36;60.00;100500.22;10361644;28;20053;-78
2023/08/24 06:08:19;;;;;;;8.15;1.95;;;;;;;22.54;60.12;100501.00;10365954;28;20137;-75
2023/08/24 06:13:21;;;;;;;7.72;1.40;;;;;;;22.65;59.95;100508.31;10364906;28;20041;-75
2023/08/24 06:18:22;;;;;;;4.50;1.38;;;;;;;22.74;59.82;100515.00;10364442;28;20066;-79
2023/08/24 06:23:24;;;;;;;4.80;1.10;;;;;;;22.72;59.98;100522.63;10367427;28;20398;-76
2023/08/24 06:28:25;;;;;;;4.88;1.73;;;;;;;22.74;60.32;100504.03;10365132;28;20105;-75
2023/08/24 06:33:31;;;;;;;7.80;1.65;;;;;;;22.79;60.75;100473.13;10365737;28;20046;-76
2023/08/24 06:38:32;;;;;;;5.97;1.10;;;;;;;22.77;60.73;100495.31;10358875;28;20361;-74
2023/08/24 06:43:34;;;;;;;3.53;0.98;;;;;;;22.67;60.71;100502.56;10365265;28;20335;-74
2023/08/24 06:48:37;;;;;;;5.18;1.17;;;;;;;22.58;61.06;100470.09;10373760;28;20076;-74
2023/08/24 06:53:38;;;;;;;3.85;1.40;;;;;;;22.67;61.24;100417.59;10370682;28;20054;-76
2023/08/24 06:58:40;;;;;;;2.65;1.35;;;;;;;22.62;61.89;100370.97;10370820;28;20041;-74
2023/08/24 07:03:41;;;;;;;6.57;2.00;;;;;;;22.58;62.20;100373.38;10374574;28;20054;-76
2023/08/24 07:08:43;;;;;;;3.58;1.90;;;;;;;22.54;62.04;100375.81;10373107;28;20042;-76
2023/08/24 07:13:45;;;;;;;3.60;2.85;;;;;;;22.44;62.04;100416.78;10369688;28;20043;-76
2023/08/24 07:18:47;;;;;;;3.28;2.28;;;;;;;22.45;62.01;100432.09;10331046;28;20441;-76
2023/08/24 07:23:48;;;;;;;4.43;2.22;;;;;;;22.57;61.71;100407.34;10325340;28;20322;-75
2023/08/24 07:28:49;;;;;;;8.60;2.13;;;;;;;22.56;62.63;100372.81;10367602;28;20065;-74
2023/08/24 07:33:51;;;;;;;3.75;1.75;;;;;;;22.58;62.43;100414.50;10361311;28;20077;-74
2023/08/24 07:38:52;;;;;;;3.42;2.13;;;;;;;22.72;62.35;100402.06;10342321;28;20122;-73
2023/08/24 07:43:54;;;;;;;6.05;2.25;;;;;;;22.91;62.03;100386.13;10361292;28;20053;-73
2023/08/24 07:48:56;;;;;;;5.25;2.25;;;;;;;23.05;61.83;100405.75;10367870;28;20049;-71
2023/08/24 07:53:57;;;;;;;4.13;2.35;;;;;;;23.06;62.22;100393.69;10361558;28;20105;-73
2023/08/24 07:58:58;;;;;;;3.83;2.17;;;;;;;23.29;61.62;100375.28;10365169;28;20143;-73
2023/08/24 08:04:00;;;;;;;4.40;2.30;;;;;;;23.26;61.63;100375.78;10362385;28;20362;-73
2023/08/24 08:09:02;;;;;;;3.95;2.50;;;;;;;23.41;61.49;100348.50;10366361;28;20046;-72
2023/08/24 08:14:04;;;;;;;3.45;2.60;;;;;;;23.59;60.95;100316.25;10364228;28;20049;-74
2023/08/24 08:19:06;;;;;;;5.60;2.20;;;;;;;23.68;60.99;100299.03;10362619;28;20126;-73
2023/08/24 08:24:08;;;;;;;5.93;2.67;;;;;;;23.60;60.80;100348.09;10363372;28;20061;-74
2023/08/24 08:29:10;;;;;;;4.18;2.67;;;;;;;23.65;60.90;100348.13;10365199;28;20045;-74
2023/08/24 08:34:11;;;;;;;6.68;2.17;;;;;;;23.73;60.16;100348.47;10362071;28;20046;-71
2023/08/24 08:39:13;;;;;;;5.10;2.38;;;;;;;23.85;59.89;100342.00;10364046;28;20034;-74
2023/08/24 08:44:15;;;;;;;8.57;2.28;;;;;;;24.06;59.21;100335.53;10359480;28;20378;-71
2023/08/24 08:49:19;;;;;;;4.85;2.15;;;;;;;24.19;59.05;100328.75;10363346;28;20053;-73
2023/08/24 08:54:20;;;;;;;4.30;1.40;;;;;;;24.36;58.32;100309.31;10364165;28;20350;-73
2023/08/24 08:59:22;;;;;;;2.38;1.38;;;;;;;24.44;57.73;100302.47;10360857;28;20050;-72
2023/08/24 09:04:24;;;;;;;3.33;2.30;;;;;;;24.65;57.47;100298.72;10363068;28;20109;-72
2023/08/24 09:09:26;;;;;;;2.33;1.80;;;;;;;24.93;56.73;100296.56;10365310;28;20084;-73
2023/08/24 09:14:28;;;;;;;3.88;1.50;;;;;;;24.98;56.50;100293.00;10371765;28;20068;-74
2023/08/24 09:19:31;;;;;;;2.67;1.33;;;;;;;24.94;56.07;100300.94;10358162;28;20046;-73
2023/08/24 09:24:34;;;;;;;3.58;1.17;;;;;;;25.07;55.64;100289.41;10362917;28;20038;-74
2023/08/24 09:29:37;;;;;;;2.28;1.10;;;;;;;25.39;54.46;100284.78;10351051;28;20038;-73
2023/08/24 09:34:39;;;;;;;1.70;1.17;;;;;;;25.32;54.63;100258.38;10364053;28;20346;-73
2023/08/24 09:39:41;;;;;;;1.80;1.02;;;;;;;25.87;54.29;100258.53;10363242;28;20141;-74
2023/08/24 09:44:46;;;;;;;1.45;0.90;;;;;;;26.27;52.28;100255.94;10362535;28;20338;-73
2023/08/24 09:49:49;;;;;;;2.70;1.08;;;;;;;26.64;51.71;100235.31;10345926;28;20350;-73
2023/08/24 09:54:52;;;;;;;3.83;0.90;;;;;;;27.04;50.24;100220.41;10359215;28;20053;-73
2023/08/24 09:59:54;;;;;;;2.58;1.48;;;;;;;27.28;49.71;100214.97;10360979;28;20077;-71
2023/08/24 10:04:58;;;;;;;4.85;1.67;;;;;;;27.66;49.25;100194.97;10326356;28;20055;-74
2023/08/24 10:10:03;;;;;;;3.38;1.55;;;;;;;28.07;48.14;100183.44;10351425;28;20041;-71
2023/08/24 10:15:08;;;;;;;2.70;1.00;;;;;;;28.31;48.17;100191.66;10365699;28;20080;-70
2023/08/24 10:20:10;;;;;;;4.72;1.48;;;;;;;28.60;46.74;100174.94;10369320;28;20346;-72
2023/08/24 10:25:13;;;;;;;3.70;1.45;;;;;;;28.85;46.26;100167.31;10370555;28;20049;-73
2023/08/24 10:30:15;;;;;;;1.65;1.10;;;;;;;29.26;45.64;100161.09;10370494;28;20057;-72
2023/08/24 10:35:17;;;;;;;3.53;1.60;;;;;;;29.66;44.11;100150.31;10367986;28;20054;-74
2023/08/24 10:40:36;;;;;;;2.08;1.40;;;;;;;29.99;44.39;100158.53;10381656;28;20311;-72
2023/08/24 10:45:54;;;;;;;2.42;0.90;;;;;;;30.35;43.52;100160.50;10370738;28;20065;-76
2023/08/24 10:51:23;;;;;;;2.08;1.30;;;;;;;30.52;42.71;100166.19;10347208;28;20636;-72
2023/08/24 10:56:35;;;;;;;2.22;0.80;;;;;;;30.72;41.71;100156.53;10340643;28;20050;-74
2023/08/24 11:01:42;;;;;;;3.47;1.02;;;;;;;30.99;41.13;100149.25;10359453;28;20058;-74
2023/08/24 11:06:58;;;;;;;11.35;5.32;;;;;;;31.46;40.67;100140.47;10359349;28;20381;-75
2023/08/24 11:12:03;;;;;;;7.60;1.13;;;;;;;31.53;40.14;100149.19;10367939;28;20077;-73
2023/08/24 11:17:18;;;;;;;1.75;0.93;;;;;;;31.65;39.50;100129.91;10367893;28;20350;-73
2023/08/24 11:22:23;;;;;;;3.63;0.98;;;;;;;31.79;38.71;100152.84;10368347;28;20353;-74
2023/08/24 11:27:25;;;;;;;3.35;0.93;;;;;;;32.08;38.50;100140.31;10366650;28;20116;-73
2023/08/24 11:32:27;;;;;;;3.47;0.93;;;;;;;32.24;38.09;100134.28;10361139;28;20074;-72
2023/08/24 11:37:28;;;;;;;2.03;0.85;;;;;;;32.37;37.72;100113.81;10365367;28;20114;-72
2023/08/24 11:42:36;;;;;;;5.07;1.05;;;;;;;32.46;36.49;100103.47;10365147;28;20077;-72
2023/08/24 11:47:37;;;;;;;3.38;1.10;;;;;;;32.78;37.09;100098.53;10369071;28;20449;-73
2023/08/24 11:52:40;;;;;;;2.35;1.00;;;;;;;33.15;36.48;100082.22;10357511;28;20115;-73
2023/08/24 11:57:41;;;;;;;1.67;1.30;;;;;;;33.42;36.56;100074.56;10364668;28;20077;-74
2023/08/24 12:02:43;;;;;;;5.53;1.08;;;;;;;33.41;36.37;100070.13;10363934;28;20074;-73
2023/08/24 12:07:45;;;;;;;2.63;1.00;;;;;;;33.43;35.58;100073.38;10356125;28;20068;-73
2023/08/24 12:12:47;;;;;;;5.68;0.90;;;;;;;33.67;35.78;100058.81;10349797;28;20074;-73
2023/08/24 12:17:49;;;;;;;1.88;0.98;;;;;;;33.77;34.98;100048.09;10367454;28;20053;-74
2023/08/24 12:22:51;;;;;;;2.03;0.98;;;;;;;33.86;34.09;100059.16;10362630;28;20114;-73
2023/08/24 12:28:14;;;;;;;3.03;0.98;;;;;;;33.60;34.66;100053.75;10364069;28;20076;-72
2023/08/24 12:33:33;;;;;;;3.42;0.98;;;;;;;33.89;33.93;100043.75;10360418;28;20087;-75
2023/08/24 12:38:35;;;;;;;2.90;1.20;;;;;;;33.94;34.28;100021.22;10364506;28;20422;-74
2023/08/24 12:43:37;;;;;;;2.92;1.40;;;;;;;34.00;34.51;100017.03;10364233;28;20497;-75
2023/08/24 12:48:41;;;;;;;3.47;1.27;;;;;;;34.06;34.59;100024.03;10366644;28;20096;-73
2023/08/24 12:53:43;;;;;;;4.28;1.23;;;;;;;33.89;33.92;100027.00;10372310;28;20091;-74
2023/08/24 12:58:44;;;;;;;6.43;1.60;;;;;;;33.95;34.28;100034.81;10369536;28;20332;-73
2023/08/24 13:03:46;;;;;;;3.92;1.10;;;;;;;33.75;34.26;100039.25;10406608;28;20042;-72
2023/08/24 13:08:47;;;;;;;2.85;2.05;;;;;;;33.81;34.68;100041.81;10407308;28;20072;-74
2023/08/24 13:13:49;;;;;;;2.95;1.50;;;;;;;33.81;34.53;100023.13;10407099;28;20068;-74
2023/08/24 13:18:50;;;;;;;7.00;2.80;;;;;;;33.81;33.90;100019.50;10407335;28;20068;-75
2023/08/24 13:23:52;;;;;;;5.53;2.20;;;;;;;33.74;34.05;100014.50;10384482;23;20062;-65
2023/08/24 13:28:54;;;;;;;3.20;1.30;;;;;;;33.64;33.81;100015.72;10357393;28;20268;-63
2023/08/24 13:33:55;;;;;;;2.30;0.90;;;;;;;33.51;33.31;100025.97;10357673;28;20049;-64
2023/08/24 13:38:57;;;;;;;2.03;1.10;;;;;;;33.41;32.60;100036.66;10358935;28;20046;-64
2023/08/24 13:43:58;;;;;;;5.68;1.10;;;;;;;33.33;32.80;100039.16;10368697;28;20049;-64
2023/08/24 13:49:00;;;;;;;3.35;1.50;;;;;;;33.22;32.92;100049.09;10375936;28;20053;-63
2023/08/24 13:54:01;;;;;;;2.13;0.90;;;;;;;32.90;33.50;100054.13;10369555;28;20042;-64
2023/08/24 13:59:03;;;;;;;4.90;1.30;;;;;;;32.55;34.22;100062.56;10369099;28;20038;-64
2023/08/24 14:04:05;;;;;;;7.60;1.88;;;;;;;32.31;35.03;100037.25;10353416;28;20060;-63
2023/08/24 14:09:06;;;;;;;3.78;1.75;;;;;;;32.23;35.58;100041.66;10354923;28;20029;-64
2023/08/24 14:14:08;;;;;;;3.83;1.40;;;;;;;31.93;36.00;100035.94;10355480;28;20070;-65
2023/08/24 14:19:09;;;;;;;3.50;1.27;;;;;;;31.84;36.74;100009.28;10356364;28;20058;-65
2023/08/24 14:24:11;;;;;;;3.83;1.10;;;;;;;31.78;36.51;99948.28;10360083;28;20616;-64
2023/08/24 14:29:14;;;;;;;2.58;1.50;;;;;;;31.80;37.15;99842.31;10345821;28;20035;-65
2023/08/24 14:34:15;;;;;;;5.50;1.20;;;;;;;31.73;37.22;99826.13;10365793;28;20074;-65
2023/08/24 14:39:17;;;;;;;2.25;1.08;;;;;;;31.71;37.23;99845.09;10361166;28;20081;-65
2023/08/24 14:44:18;;;;;;;4.30;1.35;;;;;;;31.70;37.46;99887.16;10368381;28;20072;-65
2023/08/24 14:49:20;;;;;;;2.85;1.33;;;;;;;31.39;37.80;99954.78;10367484;28;20106;-65
2023/08/24 14:54:21;;;;;;;4.57;1.73;;;;;;;31.12;38.31;100016.97;10362637;28;20058;-65
2023/08/24 14:59:23;;;;;;;2.70;1.52;;;;;;;30.75;39.13;100069.88;10350545;28;20276;-66
2023/08/24 15:04:24;;;;;;;5.45;1.65;;;;;;;30.43;39.91;100087.63;10379527;28;20113;-66
2023/08/24 15:09:26;;;;;;;2.95;1.10;;;;;;;30.30;40.22;100069.09;10374697;28;20100;-63
2023/08/24 15:14:32;;;;;;;4.97;1.40;;;;;;;30.23;40.60;100044.56;10363052;28;20114;-64
2023/08/24 15:19:33;;;;;;;9.63;1.73;;;;;;;30.31;39.91;100015.28;10372877;28;20026;-65
2023/08/24 15:24:35;;;;;;;3.28;1.40;;;;;;;30.50;40.02;99987.31;10330783;28;20047;-62
2023/08/24 15:29:36;;;;;;;6.45;2.00;;;;;;;30.60;40.36;99973.16;10343121;28;20043;-63
2023/08/24 15:34:39;;;;;;;2.65;1.35;;;;;;;30.67;40.54;99925.53;10331688;28;20105;-62
2023/08/24 15:39:41;;;;;;;4.32;1.60;;;;;;;30.62;40.54;99905.09;10318037;28;20098;-62
2023/08/24 15:44:43;;;;;;;5.70;1.48;;;;;;;30.53;40.47;99854.34;10314482;28;20149;-61
2023/08/24 15:49:44;;;;;;;3.17;1.73;;;;;;;30.43;41.30;99849.06;10319329;28;20053;-63
2023/08/24 15:54:47;;;;;;;4.53;1.40;;;;;;;30.33;41.35;99830.75;10326772;28;20038;-63
2023/08/24 15:59:48;;;;;;;2.58;1.40;;;;;;;30.17;41.14;99837.84;10324731;28;20050;-62
2023/08/24 16:04:49;;;;;;;2.45;1.10;;;;;;;29.92;42.27;99867.91;10337348;28;20045;-62
2023/08/24 16:09:51;;;;;;;1.80;1.13;;;;;;;29.93;41.74;99904.75;10337839;28;20038;-62
2023/08/24 16:14:54;;;;;;;2.33;1.30;;;;;;;29.63;42.80;99968.09;10340867;28;20069;-61
2023/08/24 16:19:55;;;;;;;2.13;1.33;;;;;;;29.11;43.45;100007.16;10288889;23;20035;-73
2023/08/24 16:24:57;;;;;;;2.75;1.38;;;;;;;28.99;43.22;99955.09;10239074;28;20074;-70
2023/08/24 16:29:59;;;;;;;2.50;1.63;;;;;;;29.15;42.26;99841.25;10237655;28;20051;-70
2023/08/24 16:35:00;;;;;;;2.42;1.00;;;;;;;28.93;42.66;99887.13;10248423;28;20067;-72
2023/08/24 16:40:02;;;;;;;3.65;1.52;;;;;;;28.65;43.57;99878.88;10257501;28;20267;-72
2023/08/24 16:45:05;;;;;;;5.30;0.95;;;;;;;28.70;43.26;99883.47;10249942;28;20059;-71
2023/08/24 16:50:07;;;;;;;3.33;1.33;;;;;;;28.66;43.52;99891.56;10247414;28;20035;-70
2023/08/24 16:55:08;;;;;;;2.35;0.93;;;;;;;28.56;43.45;99875.19;10249104;28;20066;-73
2023/08/24 17:00:12;;;;;;;5.75;1.10;;;;;;;28.41;44.22;99879.03;10252878;28;20336;-71
2023/08/24 17:05:13;;;;;;;6.10;1.05;;;;;;;28.39;43.65;99870.22;10252510;28;20055;-72
2023/08/24 17:10:15;;;;;;;1.95;1.05;;;;;;;28.23;44.04;99874.44;10227062;28;20043;-71
2023/08/24 17:15:16;;;;;;;4.38;1.02;;;;;;;28.12;44.34;99865.53;10249568;28;20103;-70
2023/08/24 17:20:18;;;;;;;2.03;0.90;;;;;;;28.12;43.99;99848.94;10244805;28;20040;-73
2023/08/24 17:25:20;;;;;;;2.47;1.25;;;;;;;28.03;44.35;99821.19;10232193;28;20067;-73
2023/08/24 17:30:21;;;;;;;2.60;1.48;;;;;;;27.98;44.56;99821.28;10250578;28;20061;-72
2023/08/24 17:35:23;;;;;;;4.25;1.40;;;;;;;27.84;45.37;99857.16;10251436;28;20039;-71
2023/08/24 17:40:24;;;;;;;4.22;1.30;;;;;;;27.35;45.58;100015.88;10248111;28;20383;-72
2023/08/24 17:45:26;;;;;;;4.22;1.00;;;;;;;27.16;45.70;100081.22;10242875;28;20386;-72
2023/08/24 17:50:27;;;;;;;6.00;1.92;;;;;;;25.27;52.58;100074.00;10247738;28;20374;-75
2023/08/24 17:55:29;;;;;;;6.80;2.50;;;;;;;23.98;59.21;100053.22;10260996;28;20071;-74
2023/08/24 18:00:30;;;;;;;5.45;3.17;;;;;;;23.58;62.55;99942.22;10291238;28;20051;-72
2023/08/24 18:05:32;;;;;;;7.13;3.53;;;;;;;23.72;63.05;99907.66;10286642;28;20267;-71
2023/08/24 18:10:33;;;;;;;6.15;3.75;;;;;;;23.67;64.15;99893.91;10294573;28;20047;-73
2023/08/24 18:15:36;;;;;;;6.82;4.25;;;;;;;23.52;65.92;99867.31;10297423;28;20066;-73
2023/08/24 18:20:37;;;;;;;9.15;4.65;;;;;;;23.52;66.33;99830.84;10285969;29;20050;-71
2023/08/24 18:25:40;;;;;;;8.77;5.25;;;;;;;23.47;67.60;99803.38;10266984;28;20043;-74
2023/08/24 18:30:42;;;;;;;7.97;4.63;;;;;;;23.43;68.05;99844.25;10262767;28;20054;-71
2023/08/24 18:35:44;;;;;;;6.47;4.10;;;;;;;23.23;68.71;99836.03;10287667;28;20043;-71
2023/08/24 18:40:47;;;;;;;10.07;5.72;;;;;;;23.19;69.92;99829.44;10284636;28;20043;-72
2023/08/24 18:45:56;;;;;;;10.30;5.38;;;;;;;23.15;70.50;99791.59;10275219;28;20137;-72
2023/08/24 18:50:59;;;;;;;9.85;5.28;;;;;;;23.02;70.87;99766.59;10278098;28;20043;-72
2023/08/24 18:56:00;;;;;;;5.93;4.47;;;;;;;22.58;72.05;99811.72;10291735;28;20093;-72
2023/08/24 19:01:03;;;;;;;6.90;4.40;;;;;;;22.52;72.29;99801.84;10293887;28;20367;-77
2023/08/24 19:06:04;;;;;;;8.68;5.45;;;;;;;22.51;72.88;99792.81;10307621;28;20114;-73
2023/08/24 19:11:23;;;;;;;12.20;6.10;;;;;;;22.69;72.21;99783.28;10281214;28;20043;-71
2023/08/24 19:16:25;;;;;;;7.95;6.18;;;;;;;22.69;72.18;99766.84;10275104;29;20039;-75
2023/08/24 19:21:28;;;;;;;10.73;6.85;;;;;;;22.79;72.12;99768.78;10293249;28;20050;-74
2023/08/24 19:26:29;;;;;;;12.45;6.15;;;;;;;22.76;72.22;99766.56;10283449;28;20131;-73
2023/08/24 19:31:31;;;;;;;9.77;6.60;;;;;;;22.65;72.42;99768.47;10293545;28;20050;-74
2023/08/24 19:36:32;;;;;;;14.60;6.82;;;;;;;22.77;72.54;99762.75;10295648;28;20110;-74
2023/08/24 19:41:34;;;;;;;9.52;7.45;;;;;;;22.82;72.52;99786.56;10293219;28;20390;-73
2023/08/24 19:46:47;;;;;;;11.88;8.07;;;;;;;22.74;72.89;99793.41;10273474;28;20120;-71
2023/08/24 19:51:48;;;;;;;10.88;8.20;;;;;;;22.82;72.24;99817.53;10245931;28;20337;-72
2023/08/24 19:56:49;;;;;;;14.90;8.38;;;;;;;22.79;72.65;99798.91;10247569;28;20047;-73
2023/08/24 20:01:51;;;;;;;12.20;8.27;;;;;;;22.85;72.42;99797.81;10249961;28;20043;-72
2023/08/24 20:06:53;;;;;;;11.85;8.68;;;;;;;22.85;72.48;99791.50;10245373;28;20077;-74
2023/08/24 20:11:55;;;;;;;10.93;7.95;;;;;;;22.78;72.43;99789.84;10248494;28;20055;-75
2023/08/24 20:16:57;;;;;;;13.77;7.75;;;;;;;22.76;72.18;99789.28;10246075;28;20367;-74
2023/08/24 20:21:58;;;;;;;15.35;9.60;;;;;;;22.61;72.89;99789.28;10248524;28;20139;-74
2023/08/24 20:27:01;;;;;;;11.80;9.30;;;;;;;22.53;72.98;99789.78;10245969;28;20044;-74
2023/08/24 20:32:03;;;;;;;14.38;9.25;;;;;;;22.48;73.31;99808.94;10231207;28;20067;-73
2023/08/24 20:37:07;;;;;;;14.88;9.32;;;;;;;22.38;73.18;99809.72;10231748;28;20107;-73
2023/08/24 20:42:13;;;;;;;16.85;9.27;;;;;;;22.38;73.27;99807.81;10246387;28;20082;-72
2023/08/24 20:47:14;;;;;;;15.75;9.85;;;;;;;22.33;73.10;99798.75;10250719;28;20055;-74
2023/08/24 20:52:17;;;;;;;17.38;10.13;;;;;;;22.35;73.21;99813.84;10231348;28;20384;-76
2023/08/24 20:57:18;;;;;;;19.00;10.63;;;;;;;22.37;73.20;99832.72;10243242;28;20047;-75
2023/08/24 21:02:20;;;;;;;16.23;8.93;;;;;;;22.38;72.98;99821.50;10244032;28;20046;-73
2023/08/24 21:07:21;;;;;;;14.13;9.15;;;;;;;22.26;73.26;99811.88;10246686;28;20062;-72
2023/08/24 21:12:23;;;;;;;18.85;9.23;;;;;;;22.18;73.52;99811.25;10245948;28;20043;-74
2023/08/24 21:17:26;;;;;;;15.45;9.57;;;;;;;22.09;73.69;99806.56;10242630;28;20082;-74
2023/08/24 21:22:27;;;;;;;10.10;7.60;;;;;;;21.93;74.01;99803.72;10246805;28;20102;-73
2023/08/24 21:27:29;;;;;;;9.65;7.70;;;;;;;22.02;73.61;99795.84;10240353;28;20047;-74
2023/08/24 21:32:30;;;;;;;11.57;8.18;;;;;;;22.05;73.48;99791.75;10240273;28;20051;-73
2023/08/24 21:37:35;;;;;;;10.02;6.75;;;;;;;22.01;73.23;99785.16;10246454;28;20403;-74
2023/08/24 21:42:36;;;;;;;10.77;7.40;;;;;;;21.87;73.45;99795.75;10243986;28;20124;-74
2023/08/24 21:47:38;;;;;;;10.40;7.10;;;;;;;21.93;73.09;99794.69;10242099;28;20054;-75
2023/08/24 21:52:39;;;;;;;8.98;8.10;;;;;;;22.03;72.87;99804.88;10246515;28;20051;-76
2023/08/24 21:57:41;;;;;;;10.50;8.02;;;;;;;22.08;72.68;99810.38;10251149;28;20043;-72
2023/08/24 22:02:42;;;;;;;13.48;8.23;;;;;;;22.10;72.95;99819.16;10245629;28;20043;-73
2023/08/24 22:07:45;;;;;;;10.10;8.80;;;;;;;22.13;72.65;99824.09;10224772;28;20114;-75
2023/08/24 22:12:46;;;;;;;12.32;8.95;;;;;;;22.12;72.46;99825.19;10233391;28;20244;-76
2023/08/24 22:17:48;;;;;;;11.82;8.82;;;;;;;22.04;72.85;99825.66;10247543;28;20248;-75
2023/08/24 22:22:50;;;;;;;16.13;10.32;;;;;;;22.02;72.89;99833.31;10252748;28;20415;-74
2023/08/24 22:27:52;;;;;;;17.15;9.55;;;;;;;22.06;72.71;99837.19;10265392;28;20359;-75
2023/08/24 22:32:54;;;;;;;14.07;9.80;;;;;;;22.04;72.77;99840.19;10249841;28;20069;-75
2023/08/24 22:37:55;;;;;;;13.25;10.50;;;;;;;22.01;73.10;99837.16;10249926;28;20051;-75
2023/08/24 22:42:57;;;;;;;16.10;10.75;;;;;;;22.00;72.84;99833.63;10247740;28;20043;-75
2023/08/24 22:47:58;;;;;;;14.20;10.30;;;;;;;21.99;72.95;99845.63;10250314;28;20063;-76
2023/08/24 22:53:00;;;;;;;13.98;10.10;;;;;;;21.98;72.95;99847.56;10251311;28;20106;-75
2023/08/24 22:58:02;;;;;;;16.88;9.98;;;;;;;21.97;73.11;99862.31;10254582;28;20047;-74
2023/08/24 23:03:03;;;;;;;13.10;10.05;;;;;;;21.98;72.96;99869.44;10246965;28;20067;-75
2023/08/24 23:08:06;;;;;;;17.25;10.77;;;;;;;21.99;72.90;99875.75;10249538;28;20422;-74
2023/08/24 23:13:08;;;;;;;15.18;10.82;;;;;;;21.97;73.00;99856.84;10248487;28;20086;-75